Wichita, KS (67277)

12:07 AM CST on February 10, 2016 (GMT -0600)
Near the airport | | Change Station
CLOSE
Current Station
Personal Weather Station
Location: Wichita, KS
Elevation: 1348 ft
Nearby Weather Stations

Elev 1348 ft 37.65 °N, 97.44 °W | Updated 16 seconds ago

Scattered Clouds
Scattered Clouds
26.7 °F
Feels Like 27 °F
N
2.0
Wind Variable Wind from NE
Gusts 3.0 mph

Today
High -- | Low -- °F
--% Chance of Precip.
Yesterday
High -- | Low -- °F
Precip. -- in
Pressure 30.31 in
Visibility 10.0 miles
Clouds Scattered Clouds 7000 ft
Windchill 27 °F
Dew Point 14 °F
Humidity 59%
Rainfall 0.00 in
Snow Depth Not available.
7:25 AM 6:03 PM
Waxing Crescent, 4% visible
METAR KICT 100553Z 00000KT 10SM SCT070 M03/M12 A3027 RMK AO2 SLP263 T10281117 10022 21028 400611028 56009
Pressure 30.31 in
Visibility 10.0 miles
Clouds Scattered Clouds 7000 ft
Windchill 27 °F
Dew Point 14 °F
Humidity 59%
Rainfall 0.00 in
Snow Depth Not available.
7:25 AM 6:03 PM
Waxing Crescent, 4% visible
METAR KICT 100553Z 00000KT 10SM SCT070 M03/M12 A3027 RMK AO2 SLP263 T10281117 10022 21028 400611028 56009

10-Day Weather Forecast

Almanac

Astronomy

Feb. 10, 2016 Rise Set
Actual Time
Civil Twilight
Nautical Twilight
Astronomical Twilight
Moon
Length of Visible Light
Length of Day
Tomorrow will be .
, % of the Moon is Illuminated

Today's Extremes

State Highs State Lows

Community

WunderPhotos

Upload Photos

1,891,824 photos uploaded!

WunderBlog® & News

Nearby

Air Quality

  Air Quality AQ Index Pollutant
Not available.

Snow Depth

Station Depth Elevation

Earthquake Activity

City Distance Mag. Time & Date
Minimum magnitude displayed is 2.5.

Coastal Water Temperatures

Place Temperature

Stations

Nearby Weather Stations

Station Location Temp. Windchill Dew Point Humidity Wind Precip. Elev Updated Type
                   

Watches & Warnings

There are currently no watches in effect.